Time;durP1;ratioP1;P1;durP2;ratioP2;P2;SDS_P1;SDS_P2;PMS_P1;PMS_P2;Temp;Humidity;BMP_temperature;BMP_pressure;BME280_temperature;BME280_humidity;BME280_pressure;Samples;Min_cycle;Max_cycle;Signal;HPM_P1;HPM_P2
2022/09/13 00:01:10;;;;;;;0.80;0.80;;;;;;;;;;1890098;75;26656;-48
2022/09/13 00:03:37;;;;;;;0.70;0.70;;;;;;;;;;1887570;75;26811;-50
2022/09/13 00:06:12;;;;;;;0.80;0.80;;;;;;;;;;1891954;75;27352;-49
2022/09/13 00:08:39;;;;;;;0.70;0.70;;;;;;;;;;1900848;75;26335;-49
2022/09/13 00:11:07;;;;;;;0.80;0.80;;;;;;;;;;1882780;75;26833;-46
2022/09/13 00:13:34;;;;;;;0.70;0.70;;;;;;;;;;1892472;75;26278;-47
2022/09/13 00:16:03;;;;;;;0.70;0.70;;;;;;;;;;1886214;75;26232;-47
2022/09/13 00:18:31;;;;;;;0.70;0.70;;;;;;;;;;1887511;75;26304;-50
2022/09/13 00:20:59;;;;;;;0.70;0.70;;;;;;;;;;1887907;75;26320;-51
2022/09/13 00:23:27;;;;;;;0.80;0.80;;;;;;;;;;1880323;75;26259;-49
2022/09/13 00:25:55;;;;;;;0.70;0.70;;;;;;;;;;1890328;75;26719;-50
2022/09/13 00:28:23;;;;;;;0.70;0.70;;;;;;;;;;1890853;75;26900;-46
2022/09/13 00:30:51;;;;;;;0.70;0.70;;;;;;;;;;1890363;75;26207;-48
2022/09/13 00:33:18;;;;;;;0.70;0.70;;;;;;;;;;1894284;75;26247;-49
2022/09/13 00:35:45;;;;;;;0.70;0.70;;;;;;;;;;1893019;75;26242;-51
2022/09/13 00:38:13;;;;;;;0.88;0.72;;;;;;;;;;1892112;75;26185;-48
2022/09/13 00:40:40;;;;;;;0.70;0.70;;;;;;;;;;1892348;75;26250;-50
2022/09/13 00:43:09;;;;;;;0.80;0.80;;;;;;;;;;1889494;75;26251;-49
2022/09/13 00:45:36;;;;;;;0.78;0.78;;;;;;;;;;1887783;75;26262;-49
2022/09/13 00:48:05;;;;;;;0.70;0.70;;;;;;;;;;1881042;75;26426;-49
2022/09/13 00:50:43;;;;;;;0.65;0.65;;;;;;;;;;1888122;75;26772;-52
2022/09/13 00:53:15;;;;;;;0.70;0.70;;;;;;;;;;1886439;75;26258;-51
2022/09/13 00:55:43;;;;;;;0.70;0.70;;;;;;;;;;1891462;75;26247;-50
2022/09/13 00:58:12;;;;;;;0.68;0.68;;;;;;;;;;1895709;75;26768;-50
2022/09/13 01:00:40;;;;;;;0.85;0.85;;;;;;;;;;1899060;75;26262;-50
2022/09/13 01:03:10;;;;;;;0.80;0.80;;;;;;;;;;1895159;75;26270;-48
2022/09/13 01:05:39;;;;;;;0.70;0.70;;;;;;;;;;1878526;75;26391;-47
2022/09/13 01:08:14;;;;;;;0.85;0.62;;;;;;;;;;1880201;75;26322;-52
2022/09/13 01:10:40;;;;;;;0.65;0.65;;;;;;;;;;1896917;75;26750;-51
2022/09/13 01:13:13;;;;;;;0.62;0.62;;;;;;;;;;1882815;75;26940;-50
2022/09/13 01:15:37;;;;;;;0.75;0.75;;;;;;;;;;1874620;76;26388;-51
2022/09/13 01:18:04;;;;;;;0.80;0.80;;;;;;;;;;1878248;75;26310;-51
2022/09/13 01:20:33;;;;;;;0.72;0.72;;;;;;;;;;1877828;75;26235;-49
2022/09/13 01:23:18;;;;;;;0.62;0.62;;;;;;;;;;1870709;76;26308;-49
2022/09/13 01:25:53;;;;;;;0.65;0.65;;;;;;;;;;1879615;76;26313;-50
2022/09/13 01:28:28;;;;;;;0.70;0.70;;;;;;;;;;1823670;76;26336;-49
2022/09/13 01:30:57;;;;;;;0.70;0.70;;;;;;;;;;1878553;76;26877;-48
2022/09/13 01:33:42;;;;;;;0.80;0.80;;;;;;;;;;1881688;76;26755;-49
2022/09/13 01:36:17;;;;;;;0.60;0.60;;;;;;;;;;1877431;76;26256;-46
2022/09/13 01:38:46;;;;;;;0.70;0.70;;;;;;;;;;1880145;76;26692;-50
2022/09/13 01:41:18;;;;;;;0.70;0.70;;;;;;;;;;1871462;76;26333;-51
2022/09/13 01:43:50;;;;;;;0.70;0.70;;;;;;;;;;1860421;76;26365;-48
2022/09/13 01:46:19;;;;;;;0.70;0.70;;;;;;;;;;1876156;75;26729;-49
2022/09/13 01:48:51;;;;;;;0.72;0.72;;;;;;;;;;1881767;76;27427;-52
2022/09/13 01:51:28;;;;;;;0.75;0.60;;;;;;;;;;1879761;76;26243;-48
2022/09/13 01:53:57;;;;;;;0.75;0.75;;;;;;;;;;1881802;76;27347;-49
2022/09/13 01:56:43;;;;;;;0.80;0.80;;;;;;;;;;1874733;75;26774;-49
2022/09/13 01:59:12;;;;;;;0.68;0.68;;;;;;;;;;1873309;76;26788;-48
2022/09/13 02:01:40;;;;;;;0.75;0.75;;;;;;;;;;1877116;76;26715;-51
2022/09/13 02:04:09;;;;;;;0.70;0.70;;;;;;;;;;1881532;76;27041;-47
2022/09/13 02:06:38;;;;;;;0.85;0.85;;;;;;;;;;1880554;76;27599;-50
2022/09/13 02:09:07;;;;;;;0.70;0.70;;;;;;;;;;1876151;76;26633;-46
2022/09/13 02:11:34;;;;;;;0.70;0.70;;;;;;;;;;1879015;76;26255;-46
2022/09/13 02:14:04;;;;;;;0.80;0.80;;;;;;;;;;1887791;75;26303;-49
2022/09/13 02:16:33;;;;;;;0.70;0.70;;;;;;;;;;1890351;75;26328;-47
2022/09/13 02:19:02;;;;;;;0.72;0.72;;;;;;;;;;1888975;75;26231;-53
2022/09/13 02:21:31;;;;;;;0.80;0.80;;;;;;;;;;1896298;75;26274;-49
2022/09/13 02:24:00;;;;;;;0.68;0.68;;;;;;;;;;1900272;75;26251;-49
2022/09/13 02:26:28;;;;;;;0.80;0.80;;;;;;;;;;1894872;75;26246;-50
2022/09/13 02:28:57;;;;;;;0.70;0.70;;;;;;;;;;1895970;75;25728;-48
2022/09/13 02:31:27;;;;;;;0.70;0.70;;;;;;;;;;1886044;75;26704;-52
2022/09/13 02:33:56;;;;;;;0.60;0.60;;;;;;;;;;1887979;75;27322;-47
2022/09/13 02:36:25;;;;;;;0.70;0.70;;;;;;;;;;1888909;75;26263;-52
2022/09/13 02:38:55;;;;;;;0.80;0.80;;;;;;;;;;1894411;75;26250;-53
2022/09/13 02:41:26;;;;;;;0.62;0.62;;;;;;;;;;1899142;75;26279;-53
2022/09/13 02:43:54;;;;;;;0.80;0.80;;;;;;;;;;1884272;75;26307;-52
2022/09/13 02:46:23;;;;;;;0.80;0.80;;;;;;;;;;1886441;75;26269;-47
2022/09/13 02:48:57;;;;;;;0.70;0.70;;;;;;;;;;1893745;75;26320;-48
2022/09/13 02:51:35;;;;;;;0.60;0.60;;;;;;;;;;1891646;75;26765;-50
2022/09/13 02:54:20;;;;;;;0.72;0.72;;;;;;;;;;1768496;80;26904;-49
2022/09/13 02:56:55;;;;;;;0.78;0.78;;;;;;;;;;1891849;75;26262;-47
2022/09/13 02:59:23;;;;;;;0.70;0.70;;;;;;;;;;1890450;75;26799;-53
2022/09/13 03:01:52;;;;;;;0.70;0.70;;;;;;;;;;1889545;75;26309;-48
2022/09/13 03:04:19;;;;;;;0.70;0.70;;;;;;;;;;1894891;75;26255;-48
2022/09/13 03:06:48;;;;;;;0.68;0.68;;;;;;;;;;1890196;75;26341;-53
2022/09/13 03:09:16;;;;;;;0.75;0.75;;;;;;;;;;1892922;75;26721;-49
2022/09/13 03:11:45;;;;;;;0.60;0.60;;;;;;;;;;1897306;75;26242;-50
2022/09/13 03:14:14;;;;;;;0.65;0.65;;;;;;;;;;1884991;75;26349;-47
2022/09/13 03:16:50;;;;;;;0.60;0.60;;;;;;;;;;1889316;75;26242;-46
2022/09/13 03:19:37;;;;;;;0.60;0.60;;;;;;;;;;1889570;75;26287;-53
2022/09/13 03:22:12;;;;;;;0.60;0.60;;;;;;;;;;1882459;75;27392;-50
2022/09/13 03:24:41;;;;;;;0.60;0.60;;;;;;;;;;1884028;75;26206;-47
2022/09/13 03:27:16;;;;;;;0.60;0.60;;;;;;;;;;1878841;75;26279;-51
2022/09/13 03:29:47;;;;;;;0.62;0.62;;;;;;;;;;1883766;75;26371;-50
2022/09/13 03:32:25;;;;;;;0.70;0.70;;;;;;;;;;1885816;75;26329;-51
2022/09/13 03:34:54;;;;;;;0.55;0.55;;;;;;;;;;1887967;75;26255;-49
2022/09/13 03:37:29;;;;;;;0.80;0.72;;;;;;;;;;1885296;75;26294;-48
2022/09/13 03:39:59;;;;;;;0.80;0.80;;;;;;;;;;1878783;75;26696;-48
2022/09/13 03:42:33;;;;;;;0.70;0.70;;;;;;;;;;1879537;75;26320;-47
2022/09/13 03:45:02;;;;;;;0.60;0.60;;;;;;;;;;1872801;75;26227;-51
2022/09/13 03:47:31;;;;;;;0.70;0.70;;;;;;;;;;1873449;75;26355;-49
2022/09/13 03:50:00;;;;;;;0.62;0.62;;;;;;;;;;1883331;75;26683;-48
2022/09/13 03:52:27;;;;;;;0.82;0.82;;;;;;;;;;1894320;75;26254;-47
2022/09/13 03:54:54;;;;;;;0.70;0.70;;;;;;;;;;1896336;75;26618;-46
2022/09/13 03:57:22;;;;;;;0.60;0.60;;;;;;;;;;1896434;75;26890;-46
2022/09/13 03:59:54;;;;;;;0.68;0.68;;;;;;;;;;1905251;74;26215;-49
2022/09/13 04:02:22;;;;;;;1.65;0.80;;;;;;;;;;1895212;74;27101;-47
2022/09/13 04:04:50;;;;;;;0.70;0.70;;;;;;;;;;1907782;75;26243;-50
2022/09/13 04:07:19;;;;;;;0.60;0.60;;;;;;;;;;1892040;75;27257;-50
2022/09/13 04:09:46;;;;;;;0.60;0.60;;;;;;;;;;1889247;75;26785;-51
2022/09/13 04:12:14;;;;;;;0.57;0.57;;;;;;;;;;1889310;75;26306;-47
2022/09/13 04:14:42;;;;;;;0.60;0.60;;;;;;;;;;1894887;75;26309;-51
2022/09/13 04:17:10;;;;;;;0.70;0.70;;;;;;;;;;1893028;75;26271;-48
2022/09/13 04:19:38;;;;;;;0.70;0.70;;;;;;;;;;1884240;75;26258;-46
2022/09/13 04:22:06;;;;;;;0.70;0.70;;;;;;;;;;1887707;75;27485;-51
2022/09/13 04:24:33;;;;;;;0.72;0.72;;;;;;;;;;1881427;75;26263;-47
2022/09/13 04:27:00;;;;;;;0.80;0.80;;;;;;;;;;1889536;75;26312;-51
2022/09/13 04:29:28;;;;;;;1.30;0.70;;;;;;;;;;1886816;75;26567;-48
2022/09/13 04:31:55;;;;;;;0.78;0.78;;;;;;;;;;1888955;75;26332;-49
2022/09/13 04:34:23;;;;;;;0.60;0.60;;;;;;;;;;1893084;75;26723;-46
2022/09/13 04:36:51;;;;;;;2.02;0.65;;;;;;;;;;1892291;75;26246;-56
2022/09/13 04:39:19;;;;;;;0.80;0.80;;;;;;;;;;1897986;75;26296;-52
2022/09/13 04:41:47;;;;;;;1.85;0.80;;;;;;;;;;1898949;75;26876;-48
2022/09/13 04:44:15;;;;;;;3.70;1.05;;;;;;;;;;1877475;75;27395;-47
2022/09/13 04:46:43;;;;;;;1.65;0.80;;;;;;;;;;1880541;75;26261;-49
2022/09/13 04:49:10;;;;;;;2.87;0.85;;;;;;;;;;1884854;75;26572;-51
2022/09/13 04:51:38;;;;;;;2.40;0.82;;;;;;;;;;1897100;75;26251;-48
2022/09/13 04:54:05;;;;;;;1.32;0.70;;;;;;;;;;1898501;75;26803;-50
2022/09/13 04:56:32;;;;;;;0.93;0.90;;;;;;;;;;1888511;75;26301;-50
2022/09/13 04:59:00;;;;;;;2.55;1.45;;;;;;;;;;1894354;75;26289;-51
2022/09/13 05:01:27;;;;;;;2.92;1.07;;;;;;;;;;1895020;75;26247;-48
2022/09/13 05:03:54;;;;;;;0.98;0.90;;;;;;;;;;1892253;75;26305;-50
2022/09/13 05:06:22;;;;;;;1.72;0.85;;;;;;;;;;1888115;75;26667;-48
2022/09/13 05:08:54;;;;;;;1.07;0.98;;;;;;;;;;1892585;75;26377;-47
2022/09/13 05:11:22;;;;;;;3.42;0.90;;;;;;;;;;1896984;75;26309;-49
2022/09/13 05:13:54;;;;;;;5.05;1.10;;;;;;;;;;1883699;75;26286;-50
2022/09/13 05:16:25;;;;;;;7.17;1.10;;;;;;;;;;1898316;75;26254;-48
2022/09/13 05:18:52;;;;;;;2.55;0.95;;;;;;;;;;1889223;75;27006;-46
2022/09/13 05:21:20;;;;;;;4.62;1.05;;;;;;;;;;1892087;75;26773;-49
2022/09/13 05:23:52;;;;;;;1.05;0.80;;;;;;;;;;1897463;75;26340;-48
2022/09/13 05:26:21;;;;;;;3.92;1.42;;;;;;;;;;1902704;75;26270;-46
2022/09/13 05:28:48;;;;;;;2.05;0.90;;;;;;;;;;1896443;75;26784;-45
2022/09/13 05:31:17;;;;;;;3.75;1.00;;;;;;;;;;1894814;75;26347;-47
2022/09/13 05:33:46;;;;;;;3.58;1.00;;;;;;;;;;1889833;75;26802;-50
2022/09/13 05:36:13;;;;;;;2.95;1.00;;;;;;;;;;1890209;75;26318;-47
2022/09/13 05:38:40;;;;;;;1.27;1.07;;;;;;;;;;1892113;75;26805;-51
2022/09/13 05:41:07;;;;;;;3.77;1.10;;;;;;;;;;1894457;75;26706;-46
2022/09/13 05:43:36;;;;;;;1.12;0.90;;;;;;;;;;1884192;75;26679;-50
2022/09/13 05:46:04;;;;;;;4.70;0.93;;;;;;;;;;1885179;75;27477;-50
2022/09/13 05:48:32;;;;;;;2.00;1.00;;;;;;;;;;1890931;75;26349;-45
2022/09/13 05:51:07;;;;;;;2.65;1.10;;;;;;;;;;1893479;75;26239;-48
2022/09/13 05:53:35;;;;;;;3.15;1.30;;;;;;;;;;1881891;74;26316;-45
2022/09/13 05:56:02;;;;;;;2.85;1.15;;;;;;;;;;1894888;75;26243;-41
2022/09/13 05:58:29;;;;;;;6.80;1.22;;;;;;;;;;1893758;75;26294;-41
2022/09/13 06:00:57;;;;;;;2.83;1.00;;;;;;;;;;1880033;75;26719;-46
2022/09/13 06:03:24;;;;;;;3.92;1.05;;;;;;;;;;1890548;75;26234;-47
2022/09/13 06:05:53;;;;;;;1.30;0.95;;;;;;;;;;1890084;75;26297;-39
2022/09/13 06:08:20;;;;;;;5.78;1.20;;;;;;;;;;1891163;75;26267;-46
2022/09/13 06:10:58;;;;;;;1.85;1.00;;;;;;;;;;1889292;75;26251;-46
2022/09/13 06:13:25;;;;;;;1.55;0.85;;;;;;;;;;1896445;75;26203;-43
2022/09/13 06:15:54;;;;;;;2.60;0.90;;;;;;;;;;1895912;75;27541;-48
2022/09/13 06:18:21;;;;;;;1.27;1.10;;;;;;;;;;1884041;75;26242;-47
2022/09/13 06:20:48;;;;;;;0.98;0.98;;;;;;;;;;1896991;75;26756;-43
2022/09/13 06:23:16;;;;;;;2.92;1.00;;;;;;;;;;1899998;75;26801;-43
2022/09/13 06:25:43;;;;;;;1.32;0.82;;;;;;;;;;1893420;75;26250;-45
2022/09/13 06:28:11;;;;;;;2.87;1.10;;;;;;;;;;1907259;75;26262;-44
2022/09/13 06:30:38;;;;;;;1.20;1.07;;;;;;;;;;1896134;74;26274;-45
2022/09/13 06:33:05;;;;;;;0.85;0.85;;;;;;;;;;1891663;75;26290;-44
2022/09/13 06:35:32;;;;;;;0.90;0.90;;;;;;;;;;1905742;75;26286;-51
2022/09/13 06:38:00;;;;;;;1.07;0.85;;;;;;;;;;1904523;75;26270;-47
2022/09/13 06:40:27;;;;;;;3.08;0.90;;;;;;;;;;1887226;75;26366;-41
2022/09/13 06:42:55;;;;;;;1.27;0.95;;;;;;;;;;1899174;75;26250;-47
2022/09/13 06:45:22;;;;;;;0.95;0.95;;;;;;;;;;1904450;75;26223;-43
2022/09/13 06:47:51;;;;;;;0.80;0.80;;;;;;;;;;1884402;75;26380;-49
2022/09/13 06:50:18;;;;;;;1.77;0.98;;;;;;;;;;1898988;75;26679;-45
2022/09/13 06:52:46;;;;;;;2.77;0.95;;;;;;;;;;1896174;75;26886;-47
2022/09/13 06:55:13;;;;;;;0.93;0.93;;;;;;;;;;1899285;75;26756;-48
2022/09/13 06:57:40;;;;;;;0.90;0.90;;;;;;;;;;1896459;75;27292;-49
2022/09/13 07:00:08;;;;;;;0.85;0.85;;;;;;;;;;1897785;74;26760;-45
2022/09/13 07:02:35;;;;;;;1.10;0.90;;;;;;;;;;1899947;75;26631;-48
2022/09/13 07:05:03;;;;;;;1.02;1.02;;;;;;;;;;1901409;75;26686;-45
2022/09/13 07:07:30;;;;;;;0.78;0.78;;;;;;;;;;1891771;75;26297;-44
2022/09/13 07:09:59;;;;;;;1.10;0.90;;;;;;;;;;1890109;75;26271;-42
2022/09/13 07:12:27;;;;;;;1.32;1.00;;;;;;;;;;1894863;74;26329;-45
2022/09/13 07:14:54;;;;;;;0.80;0.80;;;;;;;;;;1897837;75;26258;-45
2022/09/13 07:17:21;;;;;;;0.80;0.80;;;;;;;;;;1899619;75;25730;-49
2022/09/13 07:19:49;;;;;;;0.90;0.90;;;;;;;;;;1901953;75;26711;-45
2022/09/13 07:22:16;;;;;;;0.80;0.80;;;;;;;;;;1898402;74;26817;-42
2022/09/13 07:24:43;;;;;;;0.80;0.80;;;;;;;;;;1896217;75;26816;-44
2022/09/13 07:27:11;;;;;;;0.80;0.80;;;;;;;;;;1895637;75;27179;-53
2022/09/13 07:29:39;;;;;;;0.70;0.70;;;;;;;;;;1889092;75;26290;-45
2022/09/13 07:32:06;;;;;;;0.88;0.88;;;;;;;;;;1899532;75;27374;-48
2022/09/13 07:34:33;;;;;;;0.90;0.90;;;;;;;;;;1901157;75;27400;-47
2022/09/13 07:37:01;;;;;;;0.75;0.75;;;;;;;;;;1888105;75;26300;-48
2022/09/13 07:39:28;;;;;;;1.20;0.80;;;;;;;;;;1891407;75;26540;-47
2022/09/13 07:41:56;;;;;;;0.80;0.80;;;;;;;;;;1890353;74;26647;-46
2022/09/13 07:44:23;;;;;;;0.80;0.80;;;;;;;;;;1894926;75;26341;-48
2022/09/13 07:46:50;;;;;;;0.80;0.80;;;;;;;;;;1883428;75;26258;-51
2022/09/13 07:49:18;;;;;;;1.00;0.90;;;;;;;;;;1884236;75;26351;-42
2022/09/13 07:51:46;;;;;;;1.62;0.80;;;;;;;;;;1883753;75;26259;-50
2022/09/13 07:54:17;;;;;;;0.80;0.80;;;;;;;;;;1883834;75;26297;-47
2022/09/13 07:56:44;;;;;;;0.75;0.70;;;;;;;;;;1891212;75;26250;-48
2022/09/13 07:59:13;;;;;;;0.75;0.75;;;;;;;;;;1907245;75;26796;-46
2022/09/13 08:01:41;;;;;;;0.62;0.62;;;;;;;;;;1884057;75;26262;-45
2022/09/13 08:04:10;;;;;;;0.78;0.78;;;;;;;;;;1875562;75;26274;-46
2022/09/13 08:06:39;;;;;;;0.95;0.70;;;;;;;;;;1900574;75;26262;-48
2022/09/13 08:09:07;;;;;;;1.40;0.78;;;;;;;;;;1898521;75;27416;-48
2022/09/13 08:11:38;;;;;;;0.90;0.90;;;;;;;;;;1898249;75;26325;-46
2022/09/13 08:14:06;;;;;;;0.82;0.82;;;;;;;;;;1890393;75;26321;-47
2022/09/13 08:16:34;;;;;;;1.10;0.90;;;;;;;;;;1874076;75;26334;-48
2022/09/13 08:19:02;;;;;;;0.72;0.72;;;;;;;;;;1891646;75;26255;-54
2022/09/13 08:21:34;;;;;;;0.70;0.70;;;;;;;;;;1891812;75;26226;-42
2022/09/13 08:24:01;;;;;;;0.62;0.62;;;;;;;;;;1879604;75;26683;-48
2022/09/13 08:26:29;;;;;;;0.70;0.70;;;;;;;;;;1891463;75;26317;-43
2022/09/13 08:28:58;;;;;;;0.80;0.80;;;;;;;;;;1868294;75;27370;-50
2022/09/13 08:31:25;;;;;;;0.70;0.70;;;;;;;;;;1888290;75;26781;-45
2022/09/13 08:33:53;;;;;;;0.88;0.88;;;;;;;;;;1895868;75;26320;-49
2022/09/13 08:36:22;;;;;;;0.70;0.70;;;;;;;;;;1874067;75;26302;-47
2022/09/13 08:38:51;;;;;;;0.93;0.80;;;;;;;;;;1863874;75;26333;-44
2022/09/13 08:41:19;;;;;;;0.80;0.80;;;;;;;;;;1877132;75;26655;-41
2022/09/13 08:43:48;;;;;;;0.68;0.68;;;;;;;;;;1869287;75;26391;-50
2022/09/13 08:46:23;;;;;;;0.65;0.65;;;;;;;;;;1876275;75;26305;-41
2022/09/13 08:48:52;;;;;;;0.80;0.80;;;;;;;;;;1875936;75;26317;-47
2022/09/13 08:51:26;;;;;;;0.70;0.70;;;;;;;;;;1881134;75;27418;-48
2022/09/13 08:53:54;;;;;;;0.80;0.80;;;;;;;;;;1887582;75;26243;-51
2022/09/13 08:56:25;;;;;;;0.75;0.75;;;;;;;;;;1896571;75;26358;-44
2022/09/13 08:59:00;;;;;;;0.70;0.70;;;;;;;;;;1892848;75;27174;-49
2022/09/13 09:01:32;;;;;;;0.70;0.70;;;;;;;;;;1890831;75;26311;-51
2022/09/13 09:04:04;;;;;;;0.80;0.80;;;;;;;;;;1888281;75;26270;-50
2022/09/13 09:06:32;;;;;;;0.80;0.80;;;;;;;;;;1892791;75;26255;-47
2022/09/13 09:09:04;;;;;;;0.70;0.70;;;;;;;;;;1886793;75;26272;-48
2022/09/13 09:11:42;;;;;;;0.60;0.60;;;;;;;;;;1891176;75;26573;-49
2022/09/13 09:14:20;;;;;;;0.60;0.60;;;;;;;;;;1886966;75;26309;-47
2022/09/13 09:16:49;;;;;;;0.80;0.80;;;;;;;;;;1900716;75;26341;-47
2022/09/13 09:19:18;;;;;;;0.70;0.70;;;;;;;;;;1885834;75;26327;-44
2022/09/13 09:21:46;;;;;;;0.70;0.70;;;;;;;;;;1877753;75;26893;-48
2022/09/13 09:24:15;;;;;;;0.60;0.60;;;;;;;;;;1889714;75;26254;-50
2022/09/13 09:26:43;;;;;;;0.55;0.55;;;;;;;;;;1887603;75;26246;-48
2022/09/13 09:29:17;;;;;;;0.60;0.60;;;;;;;;;;1907200;75;26274;-48
2022/09/13 09:31:49;;;;;;;0.70;0.70;;;;;;;;;;1907848;75;27325;-46
2022/09/13 09:34:18;;;;;;;0.80;0.80;;;;;;;;;;1904672;75;26296;-45
2022/09/13 09:36:47;;;;;;;0.70;0.70;;;;;;;;;;1897099;75;26411;-41
2022/09/13 09:39:15;;;;;;;0.70;0.70;;;;;;;;;;1890813;75;26813;-46
2022/09/13 09:41:43;;;;;;;0.80;0.80;;;;;;;;;;1907994;75;26263;-43
2022/09/13 09:44:19;;;;;;;0.70;0.70;;;;;;;;;;1908268;75;26293;-44
2022/09/13 09:46:47;;;;;;;0.60;0.60;;;;;;;;;;1905500;75;26342;-45
2022/09/13 09:52:08;;;;;;;0.70;0.70;;;;;;;;;;1907615;75;26315;-43
2022/09/13 09:54:33;;;;;;;0.60;0.60;;;;;;;;;;1899655;75;26324;-52
2022/09/13 09:57:01;;;;;;;0.60;0.60;;;;;;;;;;1887714;75;26738;-45
2022/09/13 09:59:31;;;;;;;0.65;0.65;;;;;;;;;;1908023;75;26468;-50
2022/09/13 10:02:00;;;;;;;0.70;0.70;;;;;;;;;;1907404;75;26312;-48
2022/09/13 10:04:28;;;;;;;0.70;0.70;;;;;;;;;;1906174;75;26243;-49
2022/09/13 10:06:57;;;;;;;0.60;0.60;;;;;;;;;;1907836;75;26293;-45
2022/09/13 10:09:26;;;;;;;0.50;0.50;;;;;;;;;;1875193;75;26036;-47
2022/09/13 10:11:57;;;;;;;0.75;0.75;;;;;;;;;;1899365;75;26280;-48
2022/09/13 10:14:35;;;;;;;0.70;0.70;;;;;;;;;;1885102;75;26278;-42
2022/09/13 10:17:04;;;;;;;0.70;0.70;;;;;;;;;;1875998;75;27405;-46
2022/09/13 10:19:31;;;;;;;0.68;0.68;;;;;;;;;;1888961;75;27131;-48
2022/09/13 10:22:00;;;;;;;0.60;0.60;;;;;;;;;;1903676;75;26246;-51
2022/09/13 10:24:29;;;;;;;0.68;0.68;;;;;;;;;;1899972;75;26313;-46
2022/09/13 10:26:57;;;;;;;0.70;0.70;;;;;;;;;;1896042;75;26281;-43
2022/09/13 10:29:26;;;;;;;0.60;0.60;;;;;;;;;;1875692;75;26364;-43
2022/09/13 10:31:56;;;;;;;0.60;0.60;;;;;;;;;;1908335;75;26312;-47
2022/09/13 10:34:30;;;;;;;0.68;0.68;;;;;;;;;;1891940;75;26365;-46
2022/09/13 10:36:59;;;;;;;0.60;0.60;;;;;;;;;;1906705;75;26238;-50
2022/09/13 10:39:28;;;;;;;0.65;0.60;;;;;;;;;;1896231;75;28182;-46
2022/09/13 10:42:02;;;;;;;1.40;0.65;;;;;;;;;;1902491;75;26388;-42
2022/09/13 10:44:32;;;;;;;0.75;0.75;;;;;;;;;;1900883;75;26327;-43
2022/09/13 10:47:00;;;;;;;0.70;0.70;;;;;;;;;;1899064;75;26324;-44
2022/09/13 10:49:48;;;;;;;0.65;0.65;;;;;;;;;;1896628;75;26258;-42
2022/09/13 10:52:30;;;;;;;0.53;0.53;;;;;;;;;;1905842;75;26297;-45
2022/09/13 10:55:15;;;;;;;0.80;0.80;;;;;;;;;;1901353;75;26263;-42
2022/09/13 10:57:42;;;;;;;0.60;0.60;;;;;;;;;;1902586;75;26812;-45
2022/09/13 11:00:11;;;;;;;0.80;0.80;;;;;;;;;;1907637;75;26313;-42
2022/09/13 11:02:40;;;;;;;0.62;0.62;;;;;;;;;;1898446;75;26703;-44
2022/09/13 11:05:27;;;;;;;0.70;0.70;;;;;;;;;;1893477;75;26246;-49
2022/09/13 11:08:11;;;;;;;0.70;0.70;;;;;;;;;;1904802;75;26317;-41
2022/09/13 11:10:52;;;;;;;1.05;0.50;;;;;;;;;;1890581;75;26328;-42
2022/09/13 11:13:27;;;;;;;1.07;0.80;;;;;;;;;;1896442;75;26238;-42
2022/09/13 11:15:59;;;;;;;0.60;0.60;;;;;;;;;;1892788;75;26313;-45
2022/09/13 11:18:34;;;;;;;0.72;0.72;;;;;;;;;;1882754;75;26573;-43
2022/09/13 11:21:08;;;;;;;0.70;0.70;;;;;;;;;;1882083;75;26732;-45
2022/09/13 11:23:37;;;;;;;0.70;0.70;;;;;;;;;;1877442;76;26324;-41
2022/09/13 11:26:21;;;;;;;0.70;0.70;;;;;;;;;;1880566;76;26314;-50
2022/09/13 11:28:50;;;;;;;3.37;0.80;;;;;;;;;;1878047;76;26269;-49
2022/09/13 11:31:34;;;;;;;0.90;0.70;;;;;;;;;;1879327;75;26305;-44
2022/09/13 11:34:18;;;;;;;2.17;0.60;;;;;;;;;;1873717;76;26232;-47
2022/09/13 11:37:03;;;;;;;1.32;0.75;;;;;;;;;;1882408;76;26251;-45
2022/09/13 11:39:32;;;;;;;0.70;0.70;;;;;;;;;;1881397;76;26260;-50
2022/09/13 11:42:13;;;;;;;1.12;0.80;;;;;;;;;;1879784;76;26707;-52
2022/09/13 11:44:45;;;;;;;2.55;0.72;;;;;;;;;;1876830;76;26256;-46
2022/09/13 11:47:20;;;;;;;1.65;0.88;;;;;;;;;;1879037;76;26236;-47
2022/09/13 11:49:48;;;;;;;3.30;0.70;;;;;;;;;;1879394;76;26247;-44
2022/09/13 11:52:17;;;;;;;0.70;0.70;;;;;;;;;;1882135;76;26298;-49
2022/09/13 11:54:52;;;;;;;0.60;0.60;;;;;;;;;;1881792;76;26282;-45
2022/09/13 11:57:27;;;;;;;3.20;0.80;;;;;;;;;;1877501;76;26251;-50
2022/09/13 11:59:59;;;;;;;0.93;0.80;;;;;;;;;;1856844;76;26828;-47
2022/09/13 12:02:30;;;;;;;1.85;0.70;;;;;;;;;;1867777;76;26249;-48
2022/09/13 12:05:06;;;;;;;0.93;0.65;;;;;;;;;;1865645;76;27483;-47
2022/09/13 12:07:51;;;;;;;1.17;0.65;;;;;;;;;;1860795;76;26270;-47
2022/09/13 12:10:24;;;;;;;0.60;0.60;;;;;;;;;;1867963;76;26271;-50
2022/09/13 12:12:52;;;;;;;2.42;0.70;;;;;;;;;;1881952;76;26264;-45
2022/09/13 12:15:21;;;;;;;1.27;1.00;;;;;;;;;;1886663;75;26353;-47
2022/09/13 12:17:50;;;;;;;0.70;0.70;;;;;;;;;;1877432;75;26650;-49
2022/09/13 12:20:22;;;;;;;0.68;0.68;;;;;;;;;;1886758;75;26301;-49
2022/09/13 12:22:49;;;;;;;0.70;0.70;;;;;;;;;;1907007;75;26766;-47
2022/09/13 12:25:24;;;;;;;1.20;0.50;;;;;;;;;;1906366;75;26238;-46
2022/09/13 12:28:11;;;;;;;1.07;0.62;;;;;;;;;;1876942;75;26250;-44
2022/09/13 12:30:43;;;;;;;0.65;0.65;;;;;;;;;;1875349;75;26676;-49
2022/09/13 12:33:12;;;;;;;0.62;0.62;;;;;;;;;;1880339;75;26300;-50
2022/09/13 12:35:41;;;;;;;0.70;0.70;;;;;;;;;;1908567;75;26316;-48
2022/09/13 12:38:15;;;;;;;0.70;0.70;;;;;;;;;;1837730;75;26727;-46
2022/09/13 12:40:53;;;;;;;1.75;0.62;;;;;;;;;;1884974;75;26312;-51
2022/09/13 12:43:28;;;;;;;0.70;0.70;;;;;;;;;;1900412;75;26311;-49
2022/09/13 12:46:06;;;;;;;1.15;0.60;;;;;;;;;;1895181;75;26274;-45
2022/09/13 12:48:40;;;;;;;0.70;0.70;;;;;;;;;;1903447;75;26250;-49
2022/09/13 12:51:09;;;;;;;2.33;0.60;;;;;;;;;;1906056;75;26223;-46
2022/09/13 12:53:51;;;;;;;0.60;0.60;;;;;;;;;;1908122;75;26234;-45
2022/09/13 12:56:23;;;;;;;1.22;0.70;;;;;;;;;;1907158;75;26321;-49
2022/09/13 12:58:54;;;;;;;0.60;0.60;;;;;;;;;;1908269;75;26246;-44
2022/09/13 13:01:26;;;;;;;0.60;0.60;;;;;;;;;;1899911;75;26729;-51
2022/09/13 13:03:55;;;;;;;0.70;0.70;;;;;;;;;;1897493;75;26254;-44
2022/09/13 13:06:26;;;;;;;0.65;0.65;;;;;;;;;;1908847;75;27233;-45
2022/09/13 13:08:57;;;;;;;0.60;0.60;;;;;;;;;;1909693;75;26734;-50
2022/09/13 13:11:26;;;;;;;0.90;0.70;;;;;;;;;;1897069;75;26272;-45
2022/09/13 13:13:55;;;;;;;0.65;0.65;;;;;;;;;;1869683;75;26308;-44
2022/09/13 13:16:24;;;;;;;0.75;0.75;;;;;;;;;;1873398;75;26321;-47
2022/09/13 13:18:53;;;;;;;0.60;0.60;;;;;;;;;;1883181;75;26452;-52
2022/09/13 13:21:31;;;;;;;0.70;0.70;;;;;;;;;;1881414;75;26301;-46
2022/09/13 13:24:19;;;;;;;0.70;0.70;;;;;;;;;;1868810;75;26312;-47
2022/09/13 13:26:50;;;;;;;1.00;0.57;;;;;;;;;;1874473;75;26332;-45
2022/09/13 13:29:22;;;;;;;0.70;0.70;;;;;;;;;;1866753;75;26642;-45
2022/09/13 13:32:02;;;;;;;0.60;0.60;;;;;;;;;;1872039;75;26345;-47
2022/09/13 13:34:43;;;;;;;0.72;0.55;;;;;;;;;;1870453;75;26344;-49
2022/09/13 13:37:12;;;;;;;0.60;0.60;;;;;;;;;;1894919;75;26274;-48
2022/09/13 13:39:44;;;;;;;0.68;0.68;;;;;;;;;;1900598;75;27370;-50
2022/09/13 13:42:12;;;;;;;0.60;0.60;;;;;;;;;;1906278;75;26246;-47
2022/09/13 13:44:44;;;;;;;0.53;0.53;;;;;;;;;;1907288;75;26286;-50
2022/09/13 13:47:13;;;;;;;0.68;0.68;;;;;;;;;;1894866;75;26714;-49
2022/09/13 13:49:44;;;;;;;0.50;0.50;;;;;;;;;;1895736;74;26370;-49
2022/09/13 13:52:17;;;;;;;0.65;0.65;;;;;;;;;;1901030;75;26299;-48
2022/09/13 13:54:49;;;;;;;1.12;0.70;;;;;;;;;;1903740;75;26736;-49
2022/09/13 13:57:24;;;;;;;0.60;0.60;;;;;;;;;;1904908;75;26794;-43
2022/09/13 13:59:53;;;;;;;0.60;0.60;;;;;;;;;;1881203;75;26247;-48
2022/09/13 14:02:22;;;;;;;0.65;0.65;;;;;;;;;;1872702;75;26258;-48
2022/09/13 14:04:57;;;;;;;0.60;0.60;;;;;;;;;;1884665;75;26224;-50
2022/09/13 14:07:37;;;;;;;0.55;0.55;;;;;;;;;;1887150;75;26235;-48
2022/09/13 14:10:09;;;;;;;0.80;0.80;;;;;;;;;;1877161;75;27422;-46
2022/09/13 14:12:45;;;;;;;0.60;0.60;;;;;;;;;;1879984;75;26248;-46
2022/09/13 14:15:17;;;;;;;0.60;0.60;;;;;;;;;;1873255;75;27363;-49
2022/09/13 14:18:02;;;;;;;0.70;0.70;;;;;;;;;;1892018;75;26349;-46
2022/09/13 14:20:29;;;;;;;0.62;0.62;;;;;;;;;;1889052;75;26332;-51
2022/09/13 14:23:01;;;;;;;0.70;0.70;;;;;;;;;;1902813;75;26251;-47
2022/09/13 14:25:29;;;;;;;0.68;0.68;;;;;;;;;;1869986;75;26766;-42
2022/09/13 14:27:58;;;;;;;0.80;0.80;;;;;;;;;;1878169;75;27449;-44
2022/09/13 14:30:32;;;;;;;0.50;0.50;;;;;;;;;;1873063;75;26274;-46
2022/09/13 14:33:00;;;;;;;0.57;0.57;;;;;;;;;;1879112;75;26247;-47
2022/09/13 14:35:36;;;;;;;0.60;0.60;;;;;;;;;;1876415;75;26324;-49
2022/09/13 14:38:13;;;;;;;0.50;0.50;;;;;;;;;;1880017;75;26626;-47
2022/09/13 14:40:41;;;;;;;0.60;0.60;;;;;;;;;;1868403;75;26298;-48
2022/09/13 14:43:18;;;;;;;0.68;0.68;;;;;;;;;;1879856;75;26340;-50
2022/09/13 14:45:47;;;;;;;0.70;0.70;;;;;;;;;;1896066;75;26405;-48
2022/09/13 14:48:18;;;;;;;0.60;0.60;;;;;;;;;;1889395;75;26227;-49
2022/09/13 14:50:57;;;;;;;0.70;0.70;;;;;;;;;;1896261;75;26286;-48
2022/09/13 14:53:26;;;;;;;0.60;0.60;;;;;;;;;;1882628;75;26247;-47
2022/09/13 14:55:55;;;;;;;0.60;0.60;;;;;;;;;;1896301;75;26289;-50
2022/09/13 14:58:27;;;;;;;0.60;0.60;;;;;;;;;;1884934;74;26682;-50
2022/09/13 15:01:01;;;;;;;0.60;0.60;;;;;;;;;;1890534;75;26262;-45
2022/09/13 15:03:29;;;;;;;0.55;0.55;;;;;;;;;;1893133;75;26309;-48
2022/09/13 15:05:58;;;;;;;0.70;0.70;;;;;;;;;;1869730;74;26279;-50